createdAt,value
2022-09-16T00:05:38.118Z,100.00
2022-09-16T00:15:45.864Z,100.00
2022-09-16T00:25:55.753Z,100.00
2022-09-16T00:36:12.628Z,100.00
2022-09-16T00:46:16.449Z,100.00
2022-09-16T00:56:23.908Z,100.00
2022-09-16T01:06:27.269Z,100.00
2022-09-16T01:16:29.498Z,100.00
2022-09-16T01:26:48.964Z,100.00
2022-09-16T01:37:00.586Z,100.00
2022-09-16T01:47:10.727Z,100.00
2022-09-16T01:57:26.511Z,100.00
2022-09-16T02:07:33.833Z,100.00
2022-09-16T02:17:42.517Z,100.00
2022-09-16T02:27:47.363Z,100.00
2022-09-16T02:37:58.726Z,100.00
2022-09-16T02:48:11.941Z,100.00
2022-09-16T02:58:14.306Z,100.00
2022-09-16T03:08:16.645Z,100.00
2022-09-16T03:18:43.564Z,100.00
2022-09-16T03:29:16.098Z,100.00
2022-09-16T03:39:19.246Z,100.00
2022-09-16T03:49:21.554Z,100.00
2022-09-16T03:59:24.206Z,100.00
2022-09-16T04:09:26.706Z,100.00
2022-09-16T04:19:29.109Z,100.00
2022-09-16T04:29:32.685Z,100.00
2022-09-16T04:39:35.164Z,100.00
2022-09-16T04:49:37.475Z,100.00
2022-09-16T04:59:39.803Z,100.00
2022-09-16T05:09:42.043Z,100.00
2022-09-16T05:19:44.627Z,100.00
2022-09-16T05:29:47.774Z,100.00
2022-09-16T05:39:50.450Z,100.00
2022-09-16T05:49:55.627Z,100.00
2022-09-16T05:59:59.299Z,100.00
2022-09-16T06:10:02.029Z,100.00
2022-09-16T06:20:04.608Z,100.00
2022-09-16T06:30:07.734Z,100.00
2022-09-16T06:40:11.390Z,100.00
2022-09-16T06:50:13.899Z,100.00
2022-09-16T07:00:17.072Z,100.00
2022-09-16T07:10:19.846Z,100.00
2022-09-16T07:20:22.558Z,100.00
2022-09-16T07:30:29.305Z,100.00
2022-09-16T07:40:33.927Z,100.00
2022-09-16T07:50:37.568Z,100.00
2022-09-16T08:00:44.812Z,100.00
2022-09-16T08:10:55.575Z,100.00
2022-09-16T08:21:06.195Z,100.00
2022-09-16T08:31:10.596Z,100.00
2022-09-16T08:41:28.454Z,100.00
2022-09-16T08:51:32.132Z,100.00
2022-09-16T09:01:50.145Z,100.00
2022-09-16T09:12:21.462Z,100.00
2022-09-16T09:22:45.570Z,100.00
2022-09-16T09:33:46.248Z,99.11
2022-09-16T09:44:06.298Z,100.00
2022-09-16T09:54:27.728Z,90.88
2022-09-16T10:04:39.889Z,90.23
2022-09-16T10:14:48.280Z,87.57
2022-09-16T10:25:12.021Z,83.68
2022-09-16T10:35:32.531Z,82.13
2022-09-16T10:45:48.789Z,75.97
2022-09-16T10:56:02.011Z,83.64
2022-09-16T11:06:41.440Z,86.47
2022-09-16T11:17:12.628Z,85.54
2022-09-16T11:27:42.068Z,76.39
2022-09-16T11:37:52.540Z,77.48
2022-09-16T11:48:20.302Z,78.42
2022-09-16T11:58:30.023Z,75.05
2022-09-16T12:08:45.239Z,78.70
2022-09-16T12:18:54.130Z,80.06
2022-09-16T12:28:58.554Z,80.17
2022-09-16T12:39:07.956Z,73.49
2022-09-16T12:49:50.571Z,73.92
2022-09-16T13:00:11.111Z,72.79
2022-09-16T13:10:40.613Z,71.73
2022-09-16T13:21:06.370Z,78.53
2022-09-16T13:31:18.127Z,77.61
2022-09-16T13:41:49.863Z,77.83
2022-09-16T13:51:53.255Z,91.23
2022-09-16T14:02:16.088Z,93.07
2022-09-16T14:12:24.452Z,95.32
2022-09-16T14:22:29.072Z,87.64
2022-09-16T14:32:35.294Z,86.68
2022-09-16T14:42:39.124Z,82.60
2022-09-16T14:52:41.907Z,84.83
2022-09-16T15:02:51.156Z,79.54
2022-09-16T15:13:00.252Z,80.18
2022-09-16T15:23:04.140Z,85.28
2022-09-16T15:33:31.113Z,85.44
2022-09-16T15:43:45.905Z,87.54
2022-09-16T15:53:50.314Z,91.56
2022-09-16T16:03:53.639Z,96.47
2022-09-16T16:14:01.680Z,97.46
2022-09-16T16:24:05.666Z,98.59
2022-09-16T16:34:08.589Z,99.90
2022-09-16T16:44:11.114Z,100.00
2022-09-16T16:54:14.146Z,100.00
2022-09-16T17:04:16.593Z,100.00
2022-09-16T17:14:19.084Z,100.00
2022-09-16T17:24:22.348Z,100.00
2022-09-16T17:34:26.711Z,100.00
2022-09-16T17:44:29.148Z,100.00
2022-09-16T17:54:32.234Z,100.00
2022-09-16T18:04:34.916Z,100.00
2022-09-16T18:14:37.689Z,100.00
2022-09-16T18:24:40.251Z,100.00
2022-09-16T18:34:42.764Z,100.00
2022-09-16T18:44:45.750Z,100.00
2022-09-16T18:54:51.887Z,100.00
2022-09-16T19:04:54.715Z,100.00
2022-09-16T19:14:58.286Z,100.00
2022-09-16T19:25:01.709Z,100.00
2022-09-16T19:35:05.006Z,100.00
2022-09-16T19:45:08.204Z,100.00
2022-09-16T19:55:10.743Z,100.00
2022-09-16T20:05:13.389Z,100.00
2022-09-16T20:15:16.039Z,100.00
2022-09-16T20:25:23.525Z,100.00
2022-09-16T20:35:26.361Z,99.76
2022-09-16T20:45:28.829Z,98.21
2022-09-16T20:55:31.392Z,100.00
2022-09-16T21:05:33.802Z,99.03
2022-09-16T21:15:36.231Z,100.00
2022-09-16T21:25:38.844Z,100.00
2022-09-16T21:35:50.529Z,100.00
2022-09-16T21:45:53.027Z,100.00
2022-09-16T21:56:04.354Z,100.00
2022-09-16T22:06:09.280Z,100.00
2022-09-16T22:16:26.912Z,100.00
2022-09-16T22:26:31.095Z,100.00
2022-09-16T22:36:35.512Z,100.00
2022-09-16T22:46:45.445Z,100.00
2022-09-16T22:56:47.775Z,100.00
2022-09-16T23:06:50.141Z,100.00
2022-09-16T23:16:54.573Z,100.00
2022-09-16T23:26:56.748Z,100.00
2022-09-16T23:36:59.061Z,100.00
2022-09-16T23:47:01.323Z,100.00
2022-09-16T23:57:03.945Z,100.00
